Time;durP1;ratioP1;P1;durP2;ratioP2;P2;SDS_P1;SDS_P2;PMS_P1;PMS_P2;Temp;Humidity;BMP_temperature;BMP_pressure;BME280_temperature;BME280_humidity;BME280_pressure;Samples;Min_cycle;Max_cycle;Signal;HPM_P1;HPM_P2
2022/03/15 00:01:25;;;;;;;23.48;13.77;;;;;;;4.46;100.00;102166.44;5041569;28;20083;-86
2022/03/15 00:03:52;;;;;;;20.65;13.88;;;;;;;4.44;100.00;102162.03;5054232;28;20064;-84
2022/03/15 00:06:19;;;;;;;20.38;13.80;;;;;;;4.41;100.00;102173.16;5034729;28;20648;-83
2022/03/15 00:08:45;;;;;;;24.20;15.35;;;;;;;4.35;100.00;102172.88;5018383;28;20053;-84
2022/03/15 00:11:12;;;;;;;22.08;12.48;;;;;;;4.30;100.00;102177.91;5050578;28;20053;-84
2022/03/15 00:13:40;;;;;;;25.60;14.23;;;;;;;4.24;100.00;102180.22;5035953;28;20446;-84
2022/03/15 00:16:08;;;;;;;27.75;15.05;;;;;;;4.19;100.00;102175.69;5033041;28;20168;-83
2022/03/15 00:18:35;;;;;;;29.02;16.15;;;;;;;4.14;100.00;102176.34;5018373;28;20076;-83
2022/03/15 00:21:07;;;;;;;25.67;15.60;;;;;;;4.10;100.00;102183.97;5052825;28;20045;-84
2022/03/15 00:23:36;;;;;;;29.88;15.63;;;;;;;4.05;100.00;102182.88;5035840;28;20064;-83
2022/03/15 00:26:03;;;;;;;27.48;16.77;;;;;;;4.04;100.00;102188.88;5051104;28;20106;-84
2022/03/15 00:28:30;;;;;;;23.55;15.48;;;;;;;4.00;100.00;102192.16;5039875;28;20111;-82
2022/03/15 00:30:57;;;;;;;28.77;15.98;;;;;;;3.98;100.00;102198.16;5038843;28;20060;-83
2022/03/15 00:33:25;;;;;;;31.38;17.00;;;;;;;3.95;100.00;102199.72;5038681;28;20049;-85
2022/03/15 00:35:53;;;;;;;26.08;15.60;;;;;;;3.95;100.00;102204.91;5035526;28;20045;-83
2022/03/15 00:38:20;;;;;;;27.65;16.15;;;;;;;3.93;100.00;102199.66;5031749;28;20044;-83
2022/03/15 00:40:47;;;;;;;24.42;16.02;;;;;;;3.91;100.00;102196.13;5017946;28;20134;-86
2022/03/15 00:43:13;;;;;;;31.50;17.58;;;;;;;3.90;100.00;102204.72;5021419;28;20440;-83
2022/03/15 00:45:40;;;;;;;29.02;17.98;;;;;;;3.91;100.00;102203.91;5016124;28;20134;-82
2022/03/15 00:48:07;;;;;;;33.53;17.55;;;;;;;3.93;100.00;102202.25;5032593;28;20059;-83
2022/03/15 00:50:36;;;;;;;25.58;17.27;;;;;;;3.93;100.00;102199.66;5040405;28;20094;-86
2022/03/15 00:53:03;;;;;;;30.85;17.58;;;;;;;3.95;100.00;102197.13;5040810;28;20535;-83
2022/03/15 00:55:30;;;;;;;37.70;18.10;;;;;;;3.94;100.00;102203.16;5025750;28;20080;-83
2022/03/15 00:57:56;;;;;;;34.35;18.27;;;;;;;3.93;100.00;102214.34;5038378;28;20485;-83
2022/03/15 01:00:23;;;;;;;29.67;17.23;;;;;;;3.93;100.00;102216.91;5040490;28;20049;-84
2022/03/15 01:02:50;;;;;;;28.92;16.73;;;;;;;3.94;100.00;102208.34;5048516;28;20453;-84
2022/03/15 01:05:17;;;;;;;31.77;17.42;;;;;;;3.93;100.00;102210.03;5022290;28;20057;-83
2022/03/15 01:07:43;;;;;;;33.65;18.65;;;;;;;3.92;100.00;102217.72;5038306;28;20077;-85
2022/03/15 01:10:10;;;;;;;35.67;18.45;;;;;;;3.90;100.00;102221.97;5036370;28;20218;-83
2022/03/15 01:12:37;;;;;;;33.05;17.63;;;;;;;3.89;100.00;102217.63;5038578;28;20056;-82
2022/03/15 01:15:06;;;;;;;27.73;17.77;;;;;;;3.88;100.00;102223.59;5037548;28;20052;-83
2022/03/15 01:17:34;;;;;;;31.30;18.38;;;;;;;3.83;100.00;102222.50;5044032;28;20584;-83
2022/03/15 01:20:00;;;;;;;31.52;18.73;;;;;;;3.81;100.00;102212.97;5044145;28;20047;-83
2022/03/15 01:22:27;;;;;;;32.40;18.63;;;;;;;3.80;100.00;102211.19;5024929;28;20049;-83
2022/03/15 01:24:53;;;;;;;32.65;18.25;;;;;;;3.78;100.00;102219.69;5039206;28;20473;-84
2022/03/15 01:27:20;;;;;;;28.63;17.98;;;;;;;3.77;100.00;102212.78;5035162;28;20076;-84
2022/03/15 01:29:47;;;;;;;29.52;18.13;;;;;;;3.73;100.00;102209.16;5038107;28;20041;-85
2022/03/15 01:32:16;;;;;;;29.77;16.90;;;;;;;3.72;100.00;102211.69;5025106;28;20048;-84
2022/03/15 01:34:43;;;;;;;33.97;19.33;;;;;;;3.67;100.00;102214.06;5037286;28;20049;-83
2022/03/15 01:37:09;;;;;;;32.38;18.15;;;;;;;3.66;100.00;102214.00;5020316;28;20049;-85
2022/03/15 01:39:37;;;;;;;32.95;19.33;;;;;;;3.64;100.00;102214.81;5055628;28;20468;-84
2022/03/15 01:42:04;;;;;;;30.70;18.75;;;;;;;3.62;100.00;102208.69;5057430;28;20045;-84
2022/03/15 01:44:33;;;;;;;31.13;18.10;;;;;;;3.60;100.00;102209.44;5026358;28;20041;-83
2022/03/15 01:47:00;;;;;;;27.75;17.27;;;;;;;3.54;100.00;102201.38;5043394;28;20406;-83
2022/03/15 01:49:27;;;;;;;29.60;17.45;;;;;;;3.50;100.00;102199.50;5043460;28;20075;-86
2022/03/15 01:51:54;;;;;;;30.20;16.98;;;;;;;3.44;100.00;102198.41;5023279;28;20052;-83
2022/03/15 01:54:21;;;;;;;30.63;17.65;;;;;;;3.40;100.00;102193.91;5038873;28;20126;-85
2022/03/15 01:56:47;;;;;;;27.15;16.85;;;;;;;3.36;100.00;102191.09;5027641;28;20132;-83
2022/03/15 01:59:17;;;;;;;35.17;20.23;;;;;;;3.33;100.00;102190.97;5044316;28;20043;-83
2022/03/15 02:01:46;;;;;;;28.27;17.40;;;;;;;3.30;100.00;102192.56;5030395;28;20106;-84
2022/03/15 02:04:15;;;;;;;33.22;17.70;;;;;;;3.27;100.00;102188.97;5024703;28;20044;-83
2022/03/15 02:06:42;;;;;;;39.92;20.88;;;;;;;3.25;100.00;102188.00;5042580;28;20044;-86
2022/03/15 02:09:14;;;;;;;34.22;19.98;;;;;;;3.22;100.00;102191.34;5024991;28;20070;-85
2022/03/15 02:11:44;;;;;;;35.70;19.85;;;;;;;3.20;100.00;102184.34;5039184;28;20049;-83
2022/03/15 02:14:11;;;;;;;43.20;19.38;;;;;;;3.17;100.00;102189.34;5039608;28;20048;-86
2022/03/15 02:16:38;;;;;;;34.63;18.92;;;;;;;3.18;100.00;102193.72;5031008;28;20055;-83
2022/03/15 02:19:06;;;;;;;35.10;21.33;;;;;;;3.15;100.00;102186.69;5028565;28;20055;-82
2022/03/15 02:21:34;;;;;;;34.80;20.58;;;;;;;3.17;100.00;102192.84;5028498;28;20838;-84
2022/03/15 02:24:03;;;;;;;37.25;19.38;;;;;;;3.16;100.00;102191.06;5042613;28;20218;-83
2022/03/15 02:26:30;;;;;;;39.03;20.00;;;;;;;3.16;100.00;102192.78;5026027;28;20118;-84
2022/03/15 02:28:56;;;;;;;34.10;20.33;;;;;;;3.13;100.00;102191.81;5043435;28;20056;-83
2022/03/15 02:31:24;;;;;;;38.65;19.73;;;;;;;3.10;100.00;102185.59;5043809;28;20050;-84
2022/03/15 02:33:51;;;;;;;37.03;20.33;;;;;;;3.09;100.00;102183.81;5026913;28;20048;-83
2022/03/15 02:36:18;;;;;;;40.53;19.80;;;;;;;3.09;100.00;102184.72;5036586;28;20045;-83
2022/03/15 02:38:46;;;;;;;40.17;20.58;;;;;;;3.09;100.00;102181.22;5033112;28;20207;-83
2022/03/15 02:41:14;;;;;;;42.33;21.80;;;;;;;3.10;100.00;102176.16;5046116;28;20043;-83
2022/03/15 02:43:44;;;;;;;40.70;21.60;;;;;;;3.08;100.00;102171.72;5043133;28;20044;-83
2022/03/15 02:46:12;;;;;;;36.03;21.23;;;;;;;3.05;100.00;102164.69;5024295;28;20045;-85
2022/03/15 02:48:39;;;;;;;35.28;20.73;;;;;;;3.04;100.00;102170.69;5061093;28;20051;-84
2022/03/15 02:51:08;;;;;;;44.15;23.38;;;;;;;3.02;100.00;102163.66;5039160;28;20346;-83
2022/03/15 02:53:37;;;;;;;39.92;21.17;;;;;;;2.98;100.00;102158.31;5041564;28;20036;-82
2022/03/15 02:56:10;;;;;;;35.58;20.85;;;;;;;2.98;100.00;102168.69;5036860;28;20052;-83
2022/03/15 02:58:36;;;;;;;42.83;20.15;;;;;;;2.97;100.00;102166.94;5027347;28;20060;-83
2022/03/15 03:01:07;;;;;;;40.90;20.67;;;;;;;2.96;100.00;102165.16;5026878;28;20136;-84
2022/03/15 03:03:34;;;;;;;41.00;22.48;;;;;;;2.95;100.00;102158.19;5030485;28;20053;-83
2022/03/15 03:06:01;;;;;;;41.55;20.17;;;;;;;2.94;100.00;102169.34;5038850;28;20060;-84
2022/03/15 03:08:30;;;;;;;38.13;19.77;;;;;;;2.93;100.00;102169.28;5027167;28;20325;-83
2022/03/15 03:10:59;;;;;;;38.75;19.65;;;;;;;2.92;100.00;102167.50;5038689;28;20128;-86
2022/03/15 03:13:26;;;;;;;40.97;20.95;;;;;;;2.90;100.00;102167.44;5038827;28;20045;-83
2022/03/15 03:16:00;;;;;;;36.28;20.17;;;;;;;2.88;100.00;102161.31;5041504;28;20067;-83
2022/03/15 03:18:32;;;;;;;39.50;21.63;;;;;;;2.88;100.00;102166.50;5042128;28;20075;-84
2022/03/15 03:21:01;;;;;;;42.65;21.73;;;;;;;2.90;100.00;102166.56;5055907;28;20119;-85
2022/03/15 03:23:31;;;;;;;37.38;20.73;;;;;;;2.91;100.00;102174.41;5021619;28;20052;-83
2022/03/15 03:25:59;;;;;;;43.25;21.40;;;;;;;2.91;100.00;102173.53;5034682;28;20052;-83
2022/03/15 03:28:27;;;;;;;37.60;19.70;;;;;;;2.90;100.00;102170.03;5025681;28;20049;-87
2022/03/15 03:30:54;;;;;;;39.13;21.38;;;;;;;2.91;100.00;102168.34;5043821;28;20167;-82
2022/03/15 03:33:21;;;;;;;34.88;19.20;;;;;;;2.89;100.00;102169.97;5043061;28;20045;-83
2022/03/15 03:35:49;;;;;;;42.58;21.77;;;;;;;2.90;100.00;102171.75;5036308;28;20078;-83
2022/03/15 03:38:16;;;;;;;36.83;18.80;;;;;;;2.92;100.00;102167.50;5026380;28;20048;-83
2022/03/15 03:40:43;;;;;;;39.70;19.85;;;;;;;2.91;100.00;102166.63;5028587;28;20094;-83
2022/03/15 03:43:09;;;;;;;42.95;22.40;;;;;;;2.91;100.00;102158.00;5026540;28;20048;-83
2022/03/15 03:45:37;;;;;;;39.20;21.02;;;;;;;2.90;100.00;102157.09;5041622;28;20056;-83
2022/03/15 03:48:07;;;;;;;36.53;20.23;;;;;;;2.92;100.00;102164.91;5039942;28;20525;-83
2022/03/15 03:50:35;;;;;;;39.05;20.48;;;;;;;2.94;100.00;102171.06;5031798;28;20048;-86
2022/03/15 03:53:03;;;;;;;41.38;20.98;;;;;;;2.94;100.00;102159.00;5022017;28;20053;-85
2022/03/15 03:55:31;;;;;;;36.45;19.48;;;;;;;2.95;100.00;102160.78;5032699;28;20053;-83
2022/03/15 03:57:57;;;;;;;37.53;20.13;;;;;;;2.95;100.00;102153.03;5042920;28;20604;-84
2022/03/15 04:00:26;;;;;;;40.90;20.42;;;;;;;2.95;100.00;102150.44;5028038;28;20054;-84
2022/03/15 04:02:57;;;;;;;40.22;20.95;;;;;;;2.94;100.00;102148.66;5034898;28;20053;-84
2022/03/15 04:05:25;;;;;;;33.08;19.30;;;;;;;2.96;100.00;102147.03;5021787;28;20048;-83
2022/03/15 04:07:51;;;;;;;33.50;19.30;;;;;;;2.97;100.00;102153.09;5037508;28;20060;-83
2022/03/15 04:10:22;;;;;;;34.10;19.65;;;;;;;2.97;100.00;102145.31;5033872;28;20092;-83
2022/03/15 04:12:50;;;;;;;33.40;18.75;;;;;;;2.98;100.00;102149.69;5022407;28;20056;-83
2022/03/15 04:15:17;;;;;;;38.03;19.52;;;;;;;2.98;100.00;102149.69;5023541;28;20525;-83
2022/03/15 04:17:44;;;;;;;38.08;19.15;;;;;;;3.01;100.00;102148.94;5037917;28;20054;-82
2022/03/15 04:20:11;;;;;;;33.85;17.52;;;;;;;3.01;100.00;102146.38;5036256;28;20076;-83
2022/03/15 04:22:38;;;;;;;32.95;18.13;;;;;;;3.01;100.00;102146.38;5021228;28;20130;-84
2022/03/15 04:25:05;;;;;;;35.78;17.55;;;;;;;3.02;100.00;102143.84;5019112;28;20040;-84
2022/03/15 04:27:31;;;;;;;33.92;17.88;;;;;;;3.02;100.00;102143.84;5022870;28;20059;-85
2022/03/15 04:29:58;;;;;;;36.30;19.38;;;;;;;3.05;100.00;102140.50;5047363;28;20041;-83
2022/03/15 04:32:25;;;;;;;39.50;18.17;;;;;;;3.05;100.00;102140.50;5024754;28;20107;-84
2022/03/15 04:34:52;;;;;;;33.88;18.10;;;;;;;3.07;100.00;102142.34;5042685;28;20176;-83
2022/03/15 04:37:19;;;;;;;33.53;19.10;;;;;;;3.08;100.00;102151.03;5041008;28;20969;-86
2022/03/15 04:39:46;;;;;;;29.38;17.75;;;;;;;3.10;100.00;102146.78;5045156;28;20053;-86
2022/03/15 04:42:13;;;;;;;34.28;18.40;;;;;;;3.08;100.00;102144.13;5029623;28;20034;-83
2022/03/15 04:44:40;;;;;;;30.67;17.08;;;;;;;3.10;100.00;102137.34;5048944;28;20072;-83
2022/03/15 04:47:07;;;;;;;31.67;17.92;;;;;;;3.10;100.00;102136.44;5037621;28;20061;-84
2022/03/15 04:49:35;;;;;;;31.13;17.90;;;;;;;3.12;100.00;102140.00;5050559;28;20049;-84
2022/03/15 04:52:03;;;;;;;33.00;17.80;;;;;;;3.13;100.00;102141.78;5038730;28;20136;-84
2022/03/15 04:54:30;;;;;;;35.20;18.95;;;;;;;3.13;100.00;102140.06;5050267;28;20041;-82
2022/03/15 04:56:57;;;;;;;28.80;17.95;;;;;;;3.14;100.00;102138.34;5032679;28;20056;-84
2022/03/15 04:59:24;;;;;;;32.05;16.55;;;;;;;3.14;100.00;102136.66;5038241;28;20611;-83
2022/03/15 05:01:53;;;;;;;30.52;18.08;;;;;;;3.13;100.00;102134.88;5054935;28;20041;-84
2022/03/15 05:04:20;;;;;;;31.70;17.90;;;;;;;3.16;100.00;102134.13;4354313;28;10001222;-84
2022/03/15 05:06:47;;;;;;;32.08;17.77;;;;;;;3.16;100.00;102136.72;5018395;28;20246;-82
2022/03/15 05:09:17;;;;;;;33.08;18.00;;;;;;;3.19;100.00;102125.63;5039160;28;20053;-83
2022/03/15 05:11:45;;;;;;;32.53;17.08;;;;;;;3.19;100.00;102139.44;5052566;28;20083;-82
2022/03/15 05:14:12;;;;;;;34.13;16.50;;;;;;;3.21;100.00;102132.63;5038455;28;20052;-84
2022/03/15 05:16:41;;;;;;;32.53;17.92;;;;;;;3.23;100.00;102137.88;5015853;28;20079;-84
2022/03/15 05:19:11;;;;;;;31.38;17.95;;;;;;;3.27;100.00;102134.59;5047511;28;20045;-84
2022/03/15 05:21:39;;;;;;;31.33;16.52;;;;;;;3.27;100.00;102140.69;5032886;28;20113;-83
2022/03/15 05:24:06;;;;;;;32.03;17.25;;;;;;;3.30;100.00;102133.03;5037758;28;20104;-83
2022/03/15 05:26:33;;;;;;;30.65;16.88;;;;;;;3.35;100.00;102137.53;5053617;28;20149;-82
2022/03/15 05:29:00;;;;;;;24.77;14.60;;;;;;;3.38;100.00;102124.75;5038842;28;20107;-83
2022/03/15 05:31:29;;;;;;;27.50;15.98;;;;;;;3.43;100.00;102137.06;5026008;28;20049;-85
2022/03/15 05:34:02;;;;;;;32.65;16.83;;;;;;;3.45;100.00;102134.53;5042957;28;20045;-83
2022/03/15 05:36:32;;;;;;;35.15;18.02;;;;;;;3.46;100.00;102131.16;5026861;28;20064;-84
2022/03/15 05:39:07;;;;;;;29.30;16.40;;;;;;;3.48;100.00;102132.97;5045510;28;20045;-82
2022/03/15 05:41:40;;;;;;;32.90;16.27;;;;;;;3.49;100.00;102126.09;5061629;28;20037;-83
2022/03/15 05:44:08;;;;;;;27.88;15.25;;;;;;;3.50;100.00;102133.03;5066420;28;20076;-84
2022/03/15 05:46:44;;;;;;;32.25;17.35;;;;;;;3.52;100.00;102135.69;5064296;28;20350;-84
2022/03/15 05:49:14;;;;;;;35.47;18.35;;;;;;;3.50;100.00;102130.47;5035137;28;20049;-82
2022/03/15 05:51:43;;;;;;;29.42;16.02;;;;;;;3.49;100.00;102131.25;5028089;28;20525;-84
2022/03/15 05:54:10;;;;;;;30.65;16.40;;;;;;;3.50;100.00;102137.34;5043540;28;20071;-83
2022/03/15 05:56:39;;;;;;;27.10;15.70;;;;;;;3.52;100.00;102138.28;5042390;28;20060;-84
2022/03/15 05:59:06;;;;;;;29.55;15.95;;;;;;;3.52;100.00;102134.00;5046797;28;20083;-83
2022/03/15 06:01:34;;;;;;;31.00;15.35;;;;;;;3.55;100.00;102141.91;5031447;28;20047;-84
2022/03/15 06:04:05;;;;;;;31.75;16.98;;;;;;;3.57;100.00;102148.03;5033853;28;20076;-85
2022/03/15 06:06:32;;;;;;;33.13;16.65;;;;;;;3.58;100.00;102147.19;5030456;28;20064;-85
2022/03/15 06:09:01;;;;;;;24.20;14.90;;;;;;;3.61;100.00;102151.63;5058060;28;20055;-84
2022/03/15 06:11:33;;;;;;;27.10;15.73;;;;;;;3.64;100.00;102149.19;5023823;28;20071;-83
2022/03/15 06:14:00;;;;;;;26.92;16.33;;;;;;;3.66;100.00;102151.84;5028900;28;20072;-83
2022/03/15 06:16:27;;;;;;;32.42;18.98;;;;;;;3.70;100.00;102152.03;5019688;28;20053;-84
2022/03/15 06:18:54;;;;;;;43.25;24.65;;;;;;;3.73;100.00;102143.50;5032288;28;20084;-83
2022/03/15 06:21:21;;;;;;;33.78;22.23;;;;;;;3.75;100.00;102150.53;5026987;28;20049;-84
2022/03/15 06:23:48;;;;;;;44.35;24.20;;;;;;;3.78;100.00;102142.91;5046530;28;20068;-83
2022/03/15 06:26:18;;;;;;;28.77;18.83;;;;;;;3.82;100.00;102141.34;5008441;28;20044;-82
2022/03/15 06:28:45;;;;;;;32.00;16.65;;;;;;;3.85;100.00;102149.22;5032490;28;20094;-83
2022/03/15 06:31:13;;;;;;;24.38;15.57;;;;;;;3.87;100.00;102147.59;5018113;28;20044;-83
2022/03/15 06:33:39;;;;;;;31.67;15.68;;;;;;;3.92;100.00;102148.66;5013538;28;20129;-83
2022/03/15 06:36:11;;;;;;;25.92;16.08;;;;;;;3.96;100.00;102142.81;5044400;28;20052;-86
2022/03/15 06:38:40;;;;;;;20.60;12.77;;;;;;;4.02;100.00;102149.06;5030974;28;20049;-84
2022/03/15 06:41:09;;;;;;;26.85;16.38;;;;;;;4.08;100.00;102147.63;5019981;28;20060;-83
2022/03/15 06:43:36;;;;;;;32.03;17.30;;;;;;;4.13;100.00;102147.78;5032606;28;20467;-83
2022/03/15 06:46:02;;;;;;;32.13;16.52;;;;;;;4.19;100.00;102147.19;5014976;28;20045;-83
2022/03/15 06:48:29;;;;;;;27.65;16.55;;;;;;;4.22;100.00;102137.78;5043987;28;20418;-83
2022/03/15 06:50:55;;;;;;;24.05;14.13;;;;;;;4.27;100.00;102138.88;5024590;28;20164;-86
2022/03/15 06:53:22;;;;;;;25.08;14.35;;;;;;;4.35;100.00;102143.50;5040028;28;20727;-83
2022/03/15 06:55:49;;;;;;;29.38;16.67;;;;;;;4.38;100.00;102141.94;5043012;28;20461;-83
2022/03/15 06:58:15;;;;;;;26.35;14.93;;;;;;;4.44;100.00;102136.09;5058643;28;20135;-83
2022/03/15 07:00:42;;;;;;;28.33;14.98;;;;;;;4.50;100.00;102141.53;4999920;28;20051;-85
2022/03/15 07:03:08;;;;;;;24.92;14.10;;;;;;;4.53;100.00;102139.03;5043641;28;20048;-86
2022/03/15 07:05:35;;;;;;;23.98;14.35;;;;;;;4.60;100.00;102143.66;5028520;28;20040;-83
2022/03/15 07:08:01;;;;;;;25.65;15.15;;;;;;;4.66;100.00;102139.53;5061979;28;20503;-84
2022/03/15 07:10:28;;;;;;;25.60;15.05;;;;;;;4.71;100.00;102144.06;5032111;28;20064;-83
2022/03/15 07:12:55;;;;;;;23.95;13.98;;;;;;;4.76;100.00;102137.38;5044680;28;20154;-84
2022/03/15 07:15:22;;;;;;;21.27;13.40;;;;;;;4.82;100.00;102139.28;5047470;28;20052;-83
2022/03/15 07:17:57;;;;;;;21.52;12.73;;;;;;;4.87;100.00;102139.50;5025017;28;20052;-83
2022/03/15 07:20:26;;;;;;;24.17;13.85;;;;;;;4.92;100.00;102143.16;5045128;28;20056;-83
2022/03/15 07:22:52;;;;;;;17.73;11.57;;;;;;;4.97;100.00;102142.47;5043346;28;20048;-84
2022/03/15 07:25:21;;;;;;;22.30;12.98;;;;;;;5.01;100.00;102138.31;5020915;28;20143;-83
2022/03/15 07:27:49;;;;;;;20.98;12.68;;;;;;;5.07;100.00;102132.44;5060215;28;20045;-83
2022/03/15 07:30:16;;;;;;;21.17;12.43;;;;;;;5.13;100.00;102137.88;5046682;28;20916;-85
2022/03/15 07:32:43;;;;;;;19.58;12.18;;;;;;;5.21;100.00;102135.56;5038360;28;20060;-82
2022/03/15 07:35:11;;;;;;;18.50;12.55;;;;;;;5.25;100.00;102132.25;5037081;28;20049;-85
2022/03/15 07:37:37;;;;;;;20.25;13.05;;;;;;;5.35;100.00;102130.88;5025263;28;20428;-83
2022/03/15 07:40:05;;;;;;;20.90;11.70;;;;;;;5.47;100.00;102116.63;5046757;28;20048;-84
2022/03/15 07:42:33;;;;;;;19.58;10.90;;;;;;;5.62;100.00;102118.88;5062638;28;20394;-84
2022/03/15 07:45:00;;;;;;;22.52;12.18;;;;;;;5.80;100.00;102121.22;5034807;28;20044;-83
2022/03/15 07:47:26;;;;;;;20.17;12.43;;;;;;;5.93;99.68;102119.94;5040681;28;20057;-84
2022/03/15 07:49:53;;;;;;;20.58;11.77;;;;;;;6.06;98.83;102117.78;5042941;28;20503;-82
2022/03/15 07:52:19;;;;;;;19.08;11.30;;;;;;;6.22;98.39;102112.25;5033332;28;20050;-83
2022/03/15 07:54:46;;;;;;;22.63;10.93;;;;;;;6.39;97.20;102114.53;5039594;28;20140;-86
2022/03/15 07:57:14;;;;;;;20.00;11.70;;;;;;;6.54;94.90;102098.50;5029224;28;20056;-86
2022/03/15 07:59:40;;;;;;;21.20;11.48;;;;;;;6.68;94.50;102104.13;5046835;28;20044;-83
2022/03/15 08:02:07;;;;;;;19.08;10.27;;;;;;;6.78;93.55;102114.88;5046335;28;20041;-83
2022/03/15 08:04:34;;;;;;;18.73;10.88;;;;;;;6.90;91.82;102101.31;5044554;28;20541;-85
2022/03/15 08:07:01;;;;;;;16.05;10.43;;;;;;;7.01;92.27;102104.22;5028838;28;20052;-84
2022/03/15 08:09:28;;;;;;;22.60;9.48;;;;;;;7.15;90.35;102107.25;5046571;28;20053;-83
2022/03/15 08:11:54;;;;;;;18.77;10.60;;;;;;;7.24;90.20;102099.69;5024429;28;20040;-86
2022/03/15 08:14:21;;;;;;;28.50;14.27;;;;;;;7.33;89.33;102093.88;5050234;28;20068;-82
2022/03/15 08:16:48;;;;;;;17.67;10.55;;;;;;;7.47;89.76;102098.56;5048312;28;20135;-83
2022/03/15 08:19:15;;;;;;;17.27;10.07;;;;;;;7.57;88.69;102101.47;5045362;28;20044;-84
2022/03/15 08:21:42;;;;;;;18.77;11.10;;;;;;;7.67;88.30;102105.19;5048377;28;20047;-86
2022/03/15 08:24:09;;;;;;;15.30;10.40;;;;;;;7.76;87.78;102099.34;5046910;28;20052;-84
2022/03/15 08:26:35;;;;;;;16.02;10.23;;;;;;;7.88;86.54;102096.16;5061545;28;20502;-83
2022/03/15 08:29:02;;;;;;;17.85;9.35;;;;;;;7.97;86.33;102092.91;5053492;28;20044;-83
2022/03/15 08:31:29;;;;;;;19.63;10.50;;;;;;;8.05;85.76;102094.84;5021637;28;20071;-84
2022/03/15 08:33:55;;;;;;;16.52;10.32;;;;;;;8.08;84.76;102100.16;5033247;28;20048;-84
2022/03/15 08:36:22;;;;;;;13.85;9.95;;;;;;;8.15;84.57;102092.47;5059565;28;20071;-82
2022/03/15 08:38:48;;;;;;;15.02;10.35;;;;;;;8.14;84.58;102096.81;5040336;28;20075;-83
2022/03/15 08:41:15;;;;;;;16.95;11.40;;;;;;;8.18;83.99;102093.44;5041985;28;20057;-83
2022/03/15 08:43:42;;;;;;;13.85;9.85;;;;;;;8.19;84.43;102089.13;5053009;28;20056;-83
2022/03/15 08:46:08;;;;;;;16.60;10.25;;;;;;;8.19;83.71;102089.13;5046932;28;20406;-86
2022/03/15 08:48:35;;;;;;;16.70;9.45;;;;;;;8.21;84.23;102090.91;5037976;28;20230;-84
2022/03/15 08:51:02;;;;;;;13.60;9.13;;;;;;;8.26;83.91;102094.47;5037752;28;20250;-84
2022/03/15 08:53:32;;;;;;;12.55;8.70;;;;;;;8.33;83.43;102086.81;5029248;28;20077;-83
2022/03/15 08:55:59;;;;;;;16.73;9.45;;;;;;;8.31;83.67;102080.69;5045537;28;20040;-83
2022/03/15 08:58:26;;;;;;;13.23;9.25;;;;;;;8.36;83.56;102079.06;5030936;28;20055;-83
2022/03/15 09:00:53;;;;;;;14.80;8.95;;;;;;;8.35;82.46;102077.31;5047582;28;20048;-84
2022/03/15 09:03:22;;;;;;;14.55;9.85;;;;;;;8.38;82.99;102066.91;5049598;28;20051;-84
2022/03/15 09:05:49;;;;;;;11.82;9.63;;;;;;;8.51;83.35;102075.94;5053333;28;20052;-83
2022/03/15 09:08:16;;;;;;;15.45;10.07;;;;;;;8.58;82.17;102070.03;5051614;28;20495;-83
2022/03/15 09:10:47;;;;;;;15.40;9.27;;;;;;;8.63;81.78;102065.78;5031063;28;20040;-85
2022/03/15 09:13:14;;;;;;;14.05;9.40;;;;;;;8.74;82.05;102060.78;5034794;28;20036;-84
2022/03/15 09:15:41;;;;;;;11.15;8.18;;;;;;;8.87;81.78;102051.50;5021941;28;20044;-84
2022/03/15 09:18:08;;;;;;;15.57;8.93;;;;;;;8.96;80.59;102053.38;5034206;28;20052;-83
2022/03/15 09:20:36;;;;;;;13.13;9.32;;;;;;;9.01;80.48;102057.88;5035059;28;20041;-83
2022/03/15 09:23:03;;;;;;;16.30;9.57;;;;;;;9.04;80.15;102050.09;5059268;28;20114;-85
2022/03/15 09:25:31;;;;;;;15.52;9.05;;;;;;;9.11;79.52;102045.84;5033261;28;20040;-83
2022/03/15 09:28:00;;;;;;;14.75;8.68;;;;;;;9.17;79.55;102050.34;5031216;28;20040;-84
2022/03/15 09:30:30;;;;;;;11.60;8.48;;;;;;;9.25;79.09;102041.78;5065429;28;20095;-84
2022/03/15 09:32:59;;;;;;;12.27;8.23;;;;;;;9.35;78.13;102045.47;5042958;28;20048;-83
2022/03/15 09:35:26;;;;;;;11.63;7.82;;;;;;;9.35;77.04;102036.75;5029485;28;21541;-84
2022/03/15 09:37:53;;;;;;;13.43;8.48;;;;;;;9.29;76.96;102039.25;5047462;28;20053;-84
2022/03/15 09:40:26;;;;;;;14.48;8.48;;;;;;;9.36;77.32;102042.00;5028100;28;20051;-84
2022/03/15 09:42:59;;;;;;;9.85;7.32;;;;;;;9.42;76.63;102039.47;5050196;28;20383;-84
2022/03/15 09:45:31;;;;;;;12.48;7.78;;;;;;;9.54;76.80;102037.94;5033007;28;20048;-83
2022/03/15 09:48:02;;;;;;;9.95;7.32;;;;;;;9.71;75.82;102033.00;5065137;28;20139;-83
2022/03/15 09:50:28;;;;;;;9.15;7.32;;;;;;;9.83;74.28;102035.84;5031720;28;20579;-84
2022/03/15 09:52:58;;;;;;;8.27;6.90;;;;;;;9.96;75.17;102030.78;5045570;28;20048;-84
2022/03/15 09:55:26;;;;;;;10.20;8.07;;;;;;;10.22;73.72;102031.19;5064447;28;20091;-84
2022/03/15 09:57:55;;;;;;;8.00;6.53;;;;;;;10.36;72.90;102034.03;5047514;28;20050;-84
2022/03/15 10:00:22;;;;;;;9.85;7.13;;;;;;;10.56;71.33;102023.84;5045808;28;20044;-85
2022/03/15 10:02:48;;;;;;;17.10;9.60;;;;;;;10.77;70.29;102018.00;5044903;28;20052;-85
2022/03/15 10:05:15;;;;;;;12.55;7.13;;;;;;;10.95;69.44;102014.72;5042516;28;20068;-84
2022/03/15 10:07:42;;;;;;;7.05;6.22;;;;;;;11.15;69.63;102020.19;5027221;28;20055;-85
2022/03/15 10:10:14;;;;;;;8.25;6.65;;;;;;;11.30;68.92;102006.34;5022286;28;20501;-82
2022/03/15 10:12:41;;;;;;;9.68;6.72;;;;;;;11.42;68.36;102011.72;5040452;28;20049;-85
2022/03/15 10:15:21;;;;;;;9.80;6.97;;;;;;;11.35;66.96;102015.13;5023739;28;20049;-83
2022/03/15 10:17:52;;;;;;;8.57;6.13;;;;;;;11.33;68.75;102000.25;5024379;28;20144;-84
2022/03/15 10:20:25;;;;;;;9.13;5.82;;;;;;;11.33;68.65;101995.00;5026088;28;20376;-81
2022/03/15 10:22:58;;;;;;;9.38;6.55;;;;;;;11.49;68.10;102002.16;5024291;28;20155;-81
2022/03/15 10:25:27;;;;;;;10.60;8.00;;;;;;;11.64;67.75;102003.16;5026631;28;20132;-82
2022/03/15 10:28:04;;;;;;;7.85;6.13;;;;;;;11.63;65.94;101998.75;5058522;28;20452;-82
2022/03/15 10:30:32;;;;;;;6.35;5.75;;;;;;;11.53;67.16;101990.81;5048504;28;20047;-84
2022/03/15 10:33:00;;;;;;;6.70;5.35;;;;;;;11.49;67.08;102001.28;5041679;28;20045;-83
2022/03/15 10:35:33;;;;;;;6.82;5.45;;;;;;;11.40;67.13;101995.06;5039675;28;20052;-84
2022/03/15 10:38:00;;;;;;;8.05;5.65;;;;;;;11.39;66.16;101992.44;5024242;28;20139;-84
2022/03/15 10:40:40;;;;;;;8.93;6.18;;;;;;;11.23;66.34;101991.41;5023030;28;20057;-84
2022/03/15 10:43:11;;;;;;;7.82;5.43;;;;;;;11.23;66.69;101984.44;5028193;28;20140;-84
2022/03/15 10:45:43;;;;;;;9.35;5.28;;;;;;;11.32;66.32;101988.03;5058908;28;20115;-85
2022/03/15 10:48:23;;;;;;;8.90;5.28;;;;;;;11.38;64.99;101982.81;5045291;28;20499;-84
2022/03/15 10:50:54;;;;;;;7.78;5.75;;;;;;;11.38;65.95;101980.19;5034449;28;20059;-85
2022/03/15 10:53:30;;;;;;;8.95;6.07;;;;;;;11.32;65.33;101980.16;5038584;28;20053;-83
2022/03/15 10:56:29;;;;;;;7.97;5.30;;;;;;;11.43;65.06;101965.38;5055948;28;20068;-82
2022/03/15 10:59:05;;;;;;;8.80;5.78;;;;;;;11.54;65.64;101961.09;4995971;28;20426;-83
2022/03/15 11:01:42;;;;;;;7.38;5.18;;;;;;;11.60;64.84;101960.25;5030029;28;20040;-86
2022/03/15 11:04:18;;;;;;;8.27;5.95;;;;;;;11.80;64.55;101954.28;5039718;28;20037;-84
2022/03/15 11:06:49;;;;;;;6.10;4.63;;;;;;;11.97;64.00;101957.06;5044180;28;20068;-84
2022/03/15 11:09:31;;;;;;;8.93;6.13;;;;;;;12.06;63.11;101947.50;5050294;28;20043;-85
2022/03/15 11:12:07;;;;;;;8.00;5.47;;;;;;;12.18;62.25;101951.94;5049117;28;20063;-84
2022/03/15 11:14:57;;;;;;;10.00;5.80;;;;;;;12.16;62.88;101945.81;5039356;28;20064;-84
2022/03/15 11:17:28;;;;;;;9.07;5.70;;;;;;;12.22;62.84;101942.34;5034919;28;20064;-83
2022/03/15 11:20:01;;;;;;;8.23;6.13;;;;;;;12.30;62.04;101938.00;5025987;28;20053;-83